Terminal Aerodrome Forecast
Issued by NWS

Home | Current Version | Previous Version | Text Only | Print | Product List | Glossary On
Versions: 1 2 3 4 5 6 7 8 9 10 11 12 13
000
FTUS44 KEPZ 220500
TAFLRU
TAF
KLRU 220534Z 2206/2306 10008KT P6SM VCSH SCT090 BKN250
     FM220900 VRB05KT P6SM FEW090 SCT250
     FM222200 15009KT P6SM VCTS SCT080CB SCT150=

USA.gov is the U.S. government's official web portal to all federal, state and local government web resources and services.